createdAt,value
2023-04-15T00:00:48.924Z,2.53
2023-04-15T00:05:50.243Z,2.47
2023-04-15T00:10:51.550Z,2.36
2023-04-15T00:15:53.296Z,2.22
2023-04-15T00:20:54.667Z,2.13
2023-04-15T00:25:56.542Z,2.09
2023-04-15T00:30:58.036Z,2.03
2023-04-15T00:35:59.391Z,2.03
2023-04-15T00:41:00.871Z,1.91
2023-04-15T00:46:03.983Z,1.81
2023-04-15T00:51:05.443Z,1.71
2023-04-15T00:56:07.222Z,1.62
2023-04-15T01:01:08.946Z,1.58
2023-04-15T01:06:10.818Z,1.52
2023-04-15T01:11:12.790Z,1.50
2023-04-15T01:16:14.263Z,1.41
2023-04-15T01:21:15.685Z,1.47
2023-04-15T01:26:17.519Z,1.42
2023-04-15T01:31:18.956Z,1.37
2023-04-15T01:36:20.300Z,1.36
2023-04-15T01:41:23.824Z,1.30
2023-04-15T01:46:25.254Z,1.23
2023-04-15T01:51:27.456Z,1.19
2023-04-15T01:56:28.877Z,1.13
2023-04-15T02:01:30.381Z,1.12
2023-04-15T02:06:31.802Z,1.04
2023-04-15T02:11:33.096Z,1.02
2023-04-15T02:16:34.562Z,1.02
2023-04-15T02:21:35.948Z,0.92
2023-04-15T02:26:37.259Z,0.87
2023-04-15T02:31:40.635Z,0.80
2023-04-15T02:36:42.050Z,0.74
2023-04-15T02:41:43.923Z,0.69
2023-04-15T02:46:46.689Z,0.67
2023-04-15T02:51:49.580Z,0.61
2023-04-15T02:56:51.003Z,0.60
2023-04-15T03:01:52.482Z,0.59
2023-04-15T03:06:53.857Z,0.53
2023-04-15T03:11:55.213Z,0.52
2023-04-15T03:16:56.573Z,0.52
2023-04-15T03:21:58.043Z,0.45
2023-04-15T03:26:59.463Z,0.43
2023-04-15T03:32:01.130Z,0.37
2023-04-15T03:37:02.415Z,0.29
2023-04-15T03:42:03.876Z,0.26
2023-04-15T03:47:05.262Z,0.25
2023-04-15T03:52:06.602Z,0.20
2023-04-15T03:57:07.914Z,0.13
2023-04-15T04:02:09.324Z,0.15
2023-04-15T04:07:15.064Z,0.13
2023-04-15T04:12:16.532Z,0.11
2023-04-15T04:17:17.981Z,0.11
2023-04-15T04:22:22.292Z,0.10
2023-04-15T04:27:23.576Z,0.10
2023-04-15T04:32:25.004Z,0.06
2023-04-15T04:37:26.576Z,0.07
2023-04-15T04:42:27.889Z,0.11
2023-04-15T04:47:30.169Z,0.08
2023-04-15T04:52:31.581Z,0.08
2023-04-15T04:57:32.890Z,0.13
2023-04-15T05:02:34.629Z,0.17
2023-04-15T05:07:36.236Z,0.30
2023-04-15T05:12:38.619Z,0.50
2023-04-15T05:17:40.006Z,0.71
2023-04-15T05:22:41.552Z,0.96
2023-04-15T05:27:42.941Z,1.31
2023-04-15T05:32:44.275Z,2.00
2023-04-15T05:37:45.929Z,2.57
2023-04-15T05:42:47.266Z,4.78
2023-04-15T05:47:50.823Z,5.39
2023-04-15T05:52:52.312Z,5.19
2023-04-15T05:57:53.672Z,5.03
2023-04-15T06:02:56.185Z,4.36
2023-04-15T06:07:57.667Z,4.56
2023-04-15T06:12:58.982Z,4.86
2023-04-15T06:18:00.337Z,5.43
2023-04-15T06:23:01.970Z,6.04
2023-04-15T06:28:03.435Z,6.85
2023-04-15T06:33:06.255Z,7.72
2023-04-15T06:38:07.567Z,8.81
2023-04-15T06:43:09.175Z,9.88
2023-04-15T06:48:10.542Z,10.37
2023-04-15T06:53:11.887Z,9.52
2023-04-15T06:58:13.211Z,12.39
2023-04-15T07:03:15.140Z,13.02
2023-04-15T07:08:16.557Z,13.55
2023-04-15T07:13:17.914Z,12.64
2023-04-15T07:18:19.233Z,12.81
2023-04-15T07:23:21.187Z,12.37
2023-04-15T07:28:22.506Z,13.31
2023-04-15T07:33:23.840Z,15.02
2023-04-15T07:38:25.842Z,14.32
2023-04-15T07:43:27.163Z,13.84
2023-04-15T07:48:28.474Z,13.57
2023-04-15T07:53:30.350Z,11.88
2023-04-15T07:58:31.680Z,10.74
2023-04-15T08:03:33.765Z,12.50
2023-04-15T08:08:35.653Z,12.51
2023-04-15T08:13:36.978Z,12.29
2023-04-15T08:18:38.296Z,14.80
2023-04-15T08:23:39.782Z,13.07
2023-04-15T08:28:41.655Z,13.50
2023-04-15T08:33:42.986Z,13.20
2023-04-15T08:38:44.656Z,15.17
2023-04-15T08:43:52.843Z,14.25
2023-04-15T08:48:56.626Z,15.66
2023-04-15T08:53:58.313Z,14.35
2023-04-15T08:59:00.601Z,14.34
2023-04-15T09:04:03.066Z,14.45
2023-04-15T09:09:04.465Z,14.54
2023-04-15T09:14:05.913Z,15.07
2023-04-15T09:19:34.544Z,15.79
2023-04-15T09:24:38.181Z,15.71
2023-04-15T09:29:41.354Z,16.73
2023-04-15T09:34:42.950Z,17.09
2023-04-15T09:39:51.969Z,17.67
2023-04-15T09:44:53.389Z,16.58
2023-04-15T09:49:58.616Z,16.81
2023-04-15T09:55:00.807Z,17.32
2023-04-15T10:00:06.543Z,18.83
2023-04-15T10:05:10.348Z,19.26
2023-04-15T10:10:11.718Z,20.02
2023-04-15T10:15:17.393Z,18.58
2023-04-15T10:20:19.535Z,18.37
2023-04-15T10:25:21.484Z,21.37
2023-04-15T10:30:23.246Z,22.25
2023-04-15T10:35:24.702Z,22.88
2023-04-15T10:40:27.695Z,22.12
2023-04-15T10:45:33.086Z,21.61
2023-04-15T10:50:34.762Z,22.17
2023-04-15T10:55:36.086Z,20.62
2023-04-15T11:00:37.506Z,21.78
2023-04-15T11:05:42.063Z,22.15
2023-04-15T11:10:43.422Z,21.05
2023-04-15T11:15:45.694Z,18.57
2023-04-15T11:20:48.094Z,17.96
2023-04-15T11:25:49.487Z,16.87
2023-04-15T11:30:50.928Z,17.17
2023-04-15T11:35:53.587Z,17.23
2023-04-15T11:40:54.930Z,17.63
2023-04-15T11:45:57.413Z,18.21
2023-04-15T11:50:59.781Z,18.10
2023-04-15T11:56:01.456Z,17.16
2023-04-15T12:01:02.897Z,16.23
2023-04-15T12:06:11.566Z,16.56
2023-04-15T12:11:12.901Z,15.68
2023-04-15T12:16:18.644Z,15.41
2023-04-15T12:21:20.610Z,14.98
2023-04-15T12:26:29.116Z,14.36
2023-04-15T12:31:30.849Z,14.79
2023-04-15T12:36:36.270Z,14.89
2023-04-15T12:41:37.957Z,14.29
2023-04-15T12:46:39.304Z,13.75
2023-04-15T12:51:40.855Z,12.85
2023-04-15T12:56:42.304Z,12.63
2023-04-15T13:01:43.985Z,12.69
2023-04-15T13:06:45.373Z,12.54
2023-04-15T13:11:46.730Z,12.76
2023-04-15T13:16:48.222Z,12.85
2023-04-15T13:21:49.618Z,13.12
2023-04-15T13:26:51.018Z,13.65
2023-04-15T13:31:52.476Z,13.76
2023-04-15T13:36:53.951Z,13.70
2023-04-15T13:41:55.992Z,13.61
2023-04-15T13:46:57.411Z,13.54
2023-04-15T13:51:58.718Z,13.12
2023-04-15T13:57:00.027Z,12.97
2023-04-15T14:02:01.573Z,13.02
2023-04-15T14:07:05.074Z,12.59
2023-04-15T14:12:06.727Z,12.69
2023-04-15T14:17:08.058Z,12.33
2023-04-15T14:22:09.371Z,12.40
2023-04-15T14:27:12.579Z,12.24
2023-04-15T14:32:15.227Z,12.38
2023-04-15T14:37:17.531Z,12.72
2023-04-15T14:42:18.914Z,12.98
2023-04-15T14:47:20.297Z,12.79
2023-04-15T14:52:21.742Z,12.35
2023-04-15T14:57:23.109Z,11.97
2023-04-15T15:02:37.553Z,11.68
2023-04-15T15:07:42.778Z,11.27
2023-04-15T15:12:44.068Z,11.15
2023-04-15T15:17:45.416Z,10.80
2023-04-15T15:22:46.733Z,11.02
2023-04-15T15:27:48.822Z,10.79
2023-04-15T15:32:50.287Z,10.83
2023-04-15T15:37:52.413Z,10.68
2023-04-15T15:42:53.781Z,10.41
2023-04-15T15:47:57.091Z,10.24
2023-04-15T15:52:58.751Z,10.12
2023-04-15T15:58:00.258Z,10.13
2023-04-15T16:03:07.188Z,10.10
2023-04-15T16:08:09.200Z,10.00
2023-04-15T16:13:10.743Z,9.99
2023-04-15T16:18:13.814Z,9.92
2023-04-15T16:23:16.539Z,9.98
2023-04-15T16:28:26.324Z,9.95
2023-04-15T16:33:28.539Z,9.87
2023-04-15T16:38:30.461Z,9.85
2023-04-15T16:43:31.775Z,9.69
2023-04-15T16:48:33.112Z,9.56
2023-04-15T16:53:34.517Z,9.41
2023-04-15T16:58:35.827Z,9.40
2023-04-15T17:03:37.501Z,9.46
2023-04-15T17:08:38.846Z,9.44
2023-04-15T17:13:40.336Z,9.35
2023-04-15T17:18:41.733Z,9.29
2023-04-15T17:23:43.089Z,9.28
2023-04-15T17:28:44.738Z,9.28
2023-04-15T17:33:58.807Z,9.29
2023-04-15T17:39:07.679Z,9.18
2023-04-15T17:44:09.085Z,9.19
2023-04-15T17:49:10.396Z,9.18
2023-04-15T17:54:11.712Z,9.14
2023-04-15T17:59:13.107Z,9.10
2023-04-15T18:04:14.556Z,9.13
2023-04-15T18:09:16.044Z,9.10
2023-04-15T18:14:30.563Z,9.21
2023-04-15T18:19:34.621Z,8.95
2023-04-15T18:24:36.037Z,8.83
2023-04-15T18:29:37.357Z,8.82
2023-04-15T18:34:38.758Z,8.78
2023-04-15T18:39:40.320Z,8.78
2023-04-15T18:44:41.624Z,8.83
2023-04-15T18:49:43.045Z,8.76
2023-04-15T18:54:44.355Z,8.73
2023-04-15T18:59:45.922Z,8.64
2023-04-15T19:04:47.277Z,8.57
2023-04-15T19:09:48.617Z,8.57
2023-04-15T19:14:49.931Z,8.45
2023-04-15T19:19:51.487Z,8.32
2023-04-15T19:24:52.844Z,8.26
2023-04-15T19:29:54.247Z,8.22
2023-04-15T19:34:55.590Z,8.16
2023-04-15T19:39:56.891Z,8.13
2023-04-15T19:44:58.270Z,8.11
2023-04-15T19:49:59.640Z,7.95
2023-04-15T19:55:01.044Z,8.07
2023-04-15T20:00:02.368Z,8.10
2023-04-15T20:05:03.785Z,8.02
2023-04-15T20:10:08.633Z,8.06
2023-04-15T20:15:14.491Z,8.11
2023-04-15T20:20:16.420Z,8.14
2023-04-15T20:25:17.894Z,8.17
2023-04-15T20:30:19.214Z,8.18
2023-04-15T20:35:20.717Z,8.11
2023-04-15T20:40:22.939Z,8.10
2023-04-15T20:45:24.277Z,8.01
2023-04-15T20:50:25.806Z,7.94
2023-04-15T20:55:28.366Z,7.94
2023-04-15T21:00:33.008Z,7.87
2023-04-15T21:05:34.353Z,7.81
2023-04-15T21:10:35.874Z,7.70
2023-04-15T21:15:37.226Z,7.61
2023-04-15T21:20:38.671Z,7.56
2023-04-15T21:25:40.014Z,7.59
2023-04-15T21:30:41.317Z,7.63
2023-04-15T21:35:42.633Z,7.62
2023-04-15T21:40:43.938Z,7.66
2023-04-15T21:46:20.749Z,7.55
2023-04-15T21:51:06.742Z,7.55
2023-04-15T21:56:08.765Z,7.51
2023-04-15T22:01:10.140Z,7.58
2023-04-15T22:06:13.547Z,7.53
2023-04-15T22:11:27.148Z,7.57
2023-04-15T22:16:29.250Z,7.61
2023-04-15T22:21:30.621Z,7.53
2023-04-15T22:26:31.938Z,7.55
2023-04-15T22:31:33.264Z,7.54
2023-04-15T22:36:34.586Z,7.60
2023-04-15T22:41:35.940Z,7.54
2023-04-15T22:46:38.304Z,7.49
2023-04-15T22:51:39.683Z,7.53
2023-04-15T22:56:40.992Z,7.63
2023-04-15T23:01:42.332Z,7.44
2023-04-15T23:06:43.655Z,7.49
2023-04-15T23:11:44.966Z,7.54
2023-04-15T23:16:46.347Z,7.50
2023-04-15T23:21:47.686Z,7.48
2023-04-15T23:26:49.020Z,7.43
2023-04-15T23:31:50.370Z,7.47
2023-04-15T23:36:51.693Z,7.41
2023-04-15T23:41:53.236Z,7.33
2023-04-15T23:46:54.597Z,7.34
2023-04-15T23:51:57.096Z,7.34
2023-04-15T23:56:58.448Z,7.32
